createdAt,value
2022-09-05T00:00:34.144Z,0.00
2022-09-05T00:01:34.093Z,0.00
2022-09-05T00:02:34.078Z,0.00
2022-09-05T00:03:34.123Z,0.00
2022-09-05T00:04:34.047Z,0.00
2022-09-05T00:05:33.898Z,0.00
2022-09-05T00:06:33.830Z,0.00
2022-09-05T00:07:58.155Z,0.00
2022-09-05T00:08:33.739Z,0.00
2022-09-05T00:09:33.672Z,0.00
2022-09-05T00:10:36.126Z,0.00
2022-09-05T00:11:40.589Z,0.00
2022-09-05T00:12:33.536Z,0.00
2022-09-05T00:13:33.469Z,0.00
2022-09-05T00:14:53.669Z,0.00
2022-09-05T00:15:33.408Z,0.00
2022-09-05T00:16:33.413Z,0.00
2022-09-05T00:17:37.036Z,0.00
2022-09-05T00:23:45.519Z,0.00
2022-09-05T00:24:24.985Z,0.00
2022-09-05T00:24:25.995Z,0.00
2022-09-05T00:24:28.310Z,0.00
2022-09-05T00:24:30.062Z,0.00
2022-09-05T00:24:32.755Z,0.00
2022-09-05T00:24:50.122Z,0.00
2022-09-05T00:25:33.721Z,0.00
2022-09-05T00:26:32.811Z,0.00
2022-09-05T00:27:32.812Z,0.00
2022-09-05T00:28:32.762Z,0.00
2022-09-05T00:30:57.376Z,0.00
2022-09-05T00:31:50.793Z,0.00
2022-09-05T00:31:55.385Z,0.00
2022-09-05T00:32:32.626Z,0.00
2022-09-05T00:33:32.502Z,0.00
2022-09-05T00:34:41.114Z,0.00
2022-09-05T00:35:32.394Z,0.00
2022-09-05T00:36:32.327Z,0.00
2022-09-05T00:37:32.288Z,0.00
2022-09-05T00:38:36.853Z,0.00
2022-09-05T00:39:32.214Z,0.00
2022-09-05T00:40:32.188Z,0.00
2022-09-05T00:41:34.513Z,0.00
2022-09-05T00:42:32.043Z,0.00
2022-09-05T00:43:31.967Z,0.00
2022-09-05T00:44:31.917Z,0.00
2022-09-05T00:45:31.896Z,0.00
2022-09-05T00:46:32.073Z,0.00
2022-09-05T00:47:31.794Z,0.00
2022-09-05T00:48:31.734Z,0.00
2022-09-05T00:49:31.679Z,0.00
2022-09-05T00:50:31.656Z,0.00
2022-09-05T00:51:34.942Z,0.00
2022-09-05T00:52:31.526Z,0.00
2022-09-05T00:53:31.460Z,0.00
2022-09-05T00:54:40.450Z,0.00
2022-09-05T00:55:31.384Z,0.00
2022-09-05T00:56:31.354Z,0.00
2022-09-05T00:57:31.262Z,0.00
2022-09-05T00:58:34.123Z,0.00
2022-09-05T00:59:31.166Z,0.00
2022-09-05T01:00:31.128Z,0.00
2022-09-05T01:01:31.175Z,0.00
2022-09-05T01:02:31.187Z,0.00
2022-09-05T01:03:30.969Z,0.00
2022-09-05T01:04:30.952Z,0.00
2022-09-05T01:05:30.891Z,0.00
2022-09-05T01:06:30.845Z,0.00
2022-09-05T01:07:30.762Z,0.00
2022-09-05T01:08:30.706Z,0.00
2022-09-05T01:09:30.664Z,0.00
2022-09-05T01:10:30.626Z,0.00
2022-09-05T01:11:30.595Z,0.00
2022-09-05T01:12:30.525Z,0.00
2022-09-05T01:13:30.513Z,0.00
2022-09-05T01:14:30.436Z,0.00
2022-09-05T01:15:32.399Z,0.00
2022-09-05T01:16:30.374Z,0.00
2022-09-05T01:17:30.277Z,0.00
2022-09-05T01:18:30.226Z,0.00
2022-09-05T01:19:30.202Z,0.00
2022-09-05T01:20:32.044Z,0.00
2022-09-05T01:21:30.094Z,0.00
2022-09-05T01:22:30.016Z,0.00
2022-09-05T01:23:29.976Z,0.00
2022-09-05T01:24:29.916Z,0.00
2022-09-05T01:25:29.881Z,0.00
2022-09-05T01:26:29.836Z,0.00
2022-09-05T01:27:38.239Z,0.00
2022-09-05T01:29:15.111Z,0.00
2022-09-05T01:29:29.689Z,0.00
2022-09-05T01:30:32.126Z,0.00
2022-09-05T01:31:29.661Z,0.00
2022-09-05T01:32:29.495Z,0.00
2022-09-05T01:33:29.485Z,0.00
2022-09-05T01:34:31.538Z,0.00
2022-09-05T01:35:29.395Z,0.00
2022-09-05T01:36:29.420Z,0.00
2022-09-05T01:37:33.491Z,0.00
2022-09-05T01:38:29.203Z,0.00
2022-09-05T01:40:11.539Z,0.00
2022-09-05T01:40:29.180Z,0.00
2022-09-05T01:41:29.063Z,0.00
2022-09-05T01:42:29.047Z,0.00
2022-09-05T01:43:28.946Z,0.00
2022-09-05T01:44:28.898Z,0.00
2022-09-05T01:45:30.784Z,0.00
2022-09-05T01:46:28.842Z,0.00
2022-09-05T01:47:31.018Z,0.00
2022-09-05T01:48:28.712Z,0.00
2022-09-05T01:49:28.641Z,0.00
2022-09-05T01:50:28.619Z,0.00
2022-09-05T01:51:31.714Z,0.00
2022-09-05T01:52:28.535Z,0.00
2022-09-05T01:53:28.471Z,0.00
2022-09-05T01:54:30.201Z,0.00
2022-09-05T01:55:28.371Z,0.00
2022-09-05T01:56:28.316Z,0.00
2022-09-05T01:57:28.274Z,0.00
2022-09-05T01:58:28.226Z,0.00
2022-09-05T01:59:28.157Z,0.00
2022-09-05T02:00:28.107Z,0.00
2022-09-05T02:01:32.655Z,0.00
2022-09-05T02:02:28.044Z,0.00
2022-09-05T02:03:28.000Z,0.00
2022-09-05T02:04:27.926Z,0.00
2022-09-05T02:05:48.217Z,0.00
2022-09-05T02:06:27.794Z,0.00
2022-09-05T02:07:31.192Z,0.00
2022-09-05T02:08:27.685Z,0.00
2022-09-05T02:09:27.679Z,0.00
2022-09-05T02:10:27.630Z,0.00
2022-09-05T02:11:35.961Z,0.00
2022-09-05T02:12:27.486Z,0.00
2022-09-05T02:13:27.452Z,0.00
2022-09-05T02:14:33.856Z,0.00
2022-09-05T02:15:27.399Z,0.00
2022-09-05T02:16:27.296Z,0.00
2022-09-05T02:17:49.574Z,0.00
2022-09-05T02:18:27.196Z,0.00
2022-09-05T02:19:27.201Z,0.00
2022-09-05T02:20:27.110Z,0.00
2022-09-05T02:21:27.051Z,0.00
2022-09-05T02:22:26.999Z,0.00
2022-09-05T02:23:41.606Z,0.00
2022-09-05T02:24:26.900Z,0.00
2022-09-05T02:26:01.184Z,0.00
2022-09-05T02:26:26.794Z,0.00
2022-09-05T02:27:44.450Z,0.00
2022-09-05T02:28:26.676Z,0.00
2022-09-05T02:29:29.175Z,0.00
2022-09-05T02:30:26.604Z,0.00
2022-09-05T02:31:26.604Z,0.00
2022-09-05T02:32:26.471Z,0.00
2022-09-05T02:33:26.503Z,0.00
2022-09-05T02:34:26.424Z,0.00
2022-09-05T02:35:26.347Z,0.00
2022-09-05T02:36:26.279Z,0.00
2022-09-05T02:38:22.291Z,0.00
2022-09-05T02:41:01.190Z,0.00
2022-09-05T02:45:03.806Z,0.00
2022-09-05T02:45:08.602Z,0.00
2022-09-05T02:45:12.355Z,0.00
2022-09-05T02:45:15.040Z,0.00
2022-09-05T02:45:18.589Z,0.00
2022-09-05T02:45:18.877Z,0.00
2022-09-05T02:45:27.590Z,0.00
2022-09-05T02:46:25.864Z,0.00
2022-09-05T02:47:25.776Z,0.00
2022-09-05T02:48:25.670Z,0.00
2022-09-05T02:50:29.584Z,0.00
2022-09-05T02:55:50.690Z,0.00
2022-09-05T02:57:24.008Z,0.00
2022-09-05T02:57:25.226Z,0.00
2022-09-05T02:57:35.090Z,0.00
2022-09-05T02:57:36.698Z,0.00
2022-09-05T02:57:40.242Z,0.00
2022-09-05T02:57:40.615Z,0.00
2022-09-05T02:58:05.702Z,0.00
2022-09-05T02:58:25.243Z,0.00
2022-09-05T02:59:36.119Z,0.00
2022-09-05T03:00:25.092Z,0.00
2022-09-05T03:01:25.085Z,0.00
2022-09-05T03:02:26.696Z,0.00
2022-09-05T03:03:24.921Z,0.00
2022-09-05T03:04:24.908Z,0.00
2022-09-05T03:05:24.846Z,0.00
2022-09-05T03:06:30.002Z,0.00
2022-09-05T03:07:24.711Z,0.00
2022-09-05T03:08:24.757Z,0.00
2022-09-05T03:09:24.620Z,0.00
2022-09-05T03:10:32.292Z,0.00
2022-09-05T03:11:24.543Z,0.00
2022-09-05T03:12:29.598Z,0.00
2022-09-05T03:13:24.417Z,0.00
2022-09-05T03:14:24.378Z,0.00
2022-09-05T03:15:24.354Z,0.00
2022-09-05T03:16:24.311Z,0.00
2022-09-05T03:17:24.220Z,0.00
2022-09-05T03:18:24.164Z,0.00
2022-09-05T03:19:24.143Z,0.00
2022-09-05T03:20:24.064Z,0.00
2022-09-05T03:21:24.035Z,0.00
2022-09-05T03:22:23.998Z,0.00
2022-09-05T03:23:23.937Z,0.00
2022-09-05T03:24:23.875Z,0.00
2022-09-05T03:25:23.823Z,0.00
2022-09-05T03:26:23.766Z,0.00
2022-09-05T03:27:23.783Z,0.00
2022-09-05T03:28:23.657Z,0.00
2022-09-05T03:29:23.612Z,0.00
2022-09-05T03:30:23.569Z,0.00
2022-09-05T03:31:23.564Z,0.00
2022-09-05T03:32:23.484Z,0.00
2022-09-05T03:33:23.411Z,0.00
2022-09-05T03:34:23.357Z,0.00
2022-09-05T03:35:23.319Z,0.00
2022-09-05T03:36:23.264Z,0.00
2022-09-05T03:37:23.212Z,0.00
2022-09-05T03:38:23.232Z,0.00
2022-09-05T03:39:23.155Z,0.00
2022-09-05T03:40:23.055Z,0.00
2022-09-05T03:41:25.227Z,0.00
2022-09-05T03:42:22.973Z,0.00
2022-09-05T03:43:22.907Z,0.00
2022-09-05T03:44:22.879Z,0.00
2022-09-05T03:45:29.876Z,0.00
2022-09-05T03:46:22.852Z,0.00
2022-09-05T03:47:22.710Z,0.00
2022-09-05T03:48:27.903Z,0.00
2022-09-05T03:50:37.197Z,0.00
2022-09-05T03:53:58.508Z,0.00
2022-09-05T03:57:05.075Z,0.00
2022-09-05T03:57:10.711Z,0.00
2022-09-05T03:57:14.836Z,0.00
2022-09-05T03:57:18.468Z,0.00
2022-09-05T03:57:22.568Z,0.00
2022-09-05T03:57:22.993Z,0.00
2022-09-05T03:57:38.561Z,0.00
2022-09-05T03:58:28.118Z,0.00
2022-09-05T03:59:22.094Z,0.00
2022-09-05T04:00:22.056Z,0.00
2022-09-05T04:03:09.186Z,0.00
2022-09-05T04:04:35.169Z,0.00
2022-09-05T04:08:09.119Z,0.00
2022-09-05T04:08:10.371Z,0.00
2022-09-05T04:08:18.542Z,0.00
2022-09-05T04:08:19.249Z,0.00
2022-09-05T04:08:26.895Z,0.00
2022-09-05T04:08:34.219Z,0.00
2022-09-05T04:09:37.266Z,0.00
2022-09-05T04:10:21.678Z,0.00
2022-09-05T04:11:21.519Z,4.00
2022-09-05T04:12:21.474Z,0.00
2022-09-05T04:13:21.387Z,0.00
2022-09-05T04:14:21.326Z,4.00
2022-09-05T04:15:21.299Z,4.00
2022-09-05T04:16:21.260Z,4.00
2022-09-05T04:17:21.171Z,4.00
2022-09-05T04:18:32.833Z,4.00
2022-09-05T04:19:21.087Z,4.00
2022-09-05T04:20:21.031Z,8.00
2022-09-05T04:21:20.992Z,8.00
2022-09-05T04:22:20.934Z,8.00
2022-09-05T04:23:20.914Z,12.00
2022-09-05T04:24:20.835Z,12.00
2022-09-05T04:25:20.789Z,16.00
2022-09-05T04:26:20.735Z,20.00
2022-09-05T04:27:20.845Z,20.00
2022-09-05T04:28:20.681Z,24.00
2022-09-05T04:29:20.588Z,28.00
2022-09-05T04:30:38.581Z,32.00
2022-09-05T04:31:20.545Z,36.00
2022-09-05T04:32:20.483Z,40.00
2022-09-05T04:33:22.222Z,44.00
2022-09-05T04:34:20.327Z,52.00
2022-09-05T04:35:20.283Z,60.00
2022-09-05T04:36:20.227Z,64.00
2022-09-05T04:37:20.176Z,72.00
2022-09-05T04:38:20.210Z,80.00
2022-09-05T04:39:20.090Z,92.00
2022-09-05T04:40:20.035Z,100.00
2022-09-05T04:41:20.028Z,108.00
2022-09-05T04:42:19.930Z,124.00
2022-09-05T04:43:19.901Z,132.00
2022-09-05T04:44:19.838Z,140.00
2022-09-05T04:45:24.259Z,152.00
2022-09-05T04:46:20.707Z,168.00
2022-09-05T04:47:19.674Z,180.00
2022-09-05T04:48:21.502Z,196.00
2022-09-05T04:49:20.431Z,212.00
2022-09-05T04:50:20.275Z,228.00
2022-09-05T04:51:19.485Z,244.00
2022-09-05T04:52:25.323Z,260.00
2022-09-05T04:53:19.499Z,272.00
2022-09-05T04:54:19.325Z,288.00
2022-09-05T04:55:19.288Z,304.00
2022-09-05T04:56:19.234Z,324.00
2022-09-05T04:57:19.177Z,344.00
2022-09-05T04:58:19.204Z,356.00
2022-09-05T05:01:50.823Z,376.00
2022-09-05T05:03:29.914Z,392.00
2022-09-05T05:06:01.810Z,408.00
2022-09-05T05:06:12.754Z,480.00
2022-09-05T05:06:13.728Z,440.00
2022-09-05T05:06:15.300Z,424.00
2022-09-05T05:06:16.908Z,460.00
2022-09-05T05:06:38.285Z,492.00
2022-09-05T05:07:18.815Z,512.00
2022-09-05T05:08:28.991Z,528.00
2022-09-05T05:09:18.587Z,544.00
2022-09-05T05:14:17.542Z,580.00
2022-09-05T05:14:44.459Z,564.00
2022-09-05T05:17:54.187Z,592.00
2022-09-05T05:17:58.681Z,620.00
2022-09-05T05:17:58.814Z,608.00
2022-09-05T05:18:14.680Z,632.00
2022-09-05T05:18:15.327Z,660.00
2022-09-05T05:18:15.330Z,648.00
2022-09-05T05:18:39.701Z,676.00
2022-09-05T05:19:21.669Z,688.00
2022-09-05T05:20:39.830Z,704.00
2022-09-05T05:21:17.973Z,716.00
2022-09-05T05:22:17.940Z,732.00
2022-09-05T05:23:17.893Z,752.00
2022-09-05T05:24:17.856Z,768.00
2022-09-05T05:25:17.770Z,784.00
2022-09-05T05:26:17.713Z,796.00
2022-09-05T05:27:17.685Z,804.00
2022-09-05T05:28:24.279Z,808.00
2022-09-05T05:29:19.528Z,820.00
2022-09-05T05:30:17.627Z,836.00
2022-09-05T05:31:17.526Z,856.00
2022-09-05T05:32:17.409Z,884.00
2022-09-05T05:33:17.360Z,900.00
2022-09-05T05:34:24.017Z,916.00
2022-09-05T05:35:17.269Z,932.00
2022-09-05T05:36:17.232Z,952.00
2022-09-05T05:37:17.162Z,976.00
2022-09-05T05:38:17.164Z,1004.00
2022-09-05T05:39:17.076Z,1040.00
2022-09-05T05:40:17.026Z,1080.00
2022-09-05T05:41:16.952Z,1104.00
2022-09-05T05:42:20.769Z,1132.00
2022-09-05T05:43:16.870Z,1156.00
2022-09-05T05:44:16.841Z,1184.00
2022-09-05T05:45:16.735Z,1204.00
2022-09-05T05:46:16.808Z,1228.00
2022-09-05T05:47:16.626Z,1248.00
2022-09-05T05:48:16.582Z,1272.00
2022-09-05T05:49:16.570Z,1292.00
2022-09-05T05:50:16.508Z,1316.00
2022-09-05T05:51:16.496Z,1332.00
2022-09-05T05:52:16.418Z,1352.00
2022-09-05T05:53:28.956Z,1372.00
2022-09-05T05:54:16.299Z,1396.00
2022-09-05T05:55:50.835Z,1416.00
2022-09-05T05:56:16.159Z,1440.00
2022-09-05T05:57:16.108Z,1464.00
2022-09-05T05:58:16.071Z,1484.00
2022-09-05T05:59:16.007Z,1508.00
2022-09-05T06:00:15.956Z,1532.00
2022-09-05T06:01:30.332Z,1556.00
2022-09-05T06:02:15.988Z,1584.00
2022-09-05T06:03:26.834Z,1612.00
2022-09-05T06:04:15.756Z,1640.00
2022-09-05T06:05:15.706Z,1672.00
2022-09-05T06:06:15.658Z,1700.00
2022-09-05T06:07:15.604Z,1732.00
2022-09-05T06:09:40.788Z,1772.00
2022-09-05T06:13:30.531Z,1812.00
2022-09-05T06:14:51.107Z,1848.00
2022-09-05T06:14:57.753Z,1940.00
2022-09-05T06:15:00.802Z,1880.00
2022-09-05T06:15:02.368Z,1912.00
2022-09-05T06:15:05.252Z,1968.00
2022-09-05T06:15:21.298Z,2012.00
2022-09-05T06:16:15.221Z,2048.00
2022-09-05T06:17:15.103Z,2056.00
2022-09-05T06:18:15.071Z,2052.00
2022-09-05T06:19:15.007Z,2088.00
2022-09-05T06:22:04.357Z,2124.00
2022-09-05T06:22:09.393Z,2160.00
2022-09-05T06:22:17.992Z,2200.00
2022-09-05T06:23:28.803Z,2236.00
2022-09-05T06:24:14.756Z,2268.00
2022-09-05T06:25:16.962Z,2312.00
2022-09-05T06:26:14.657Z,2368.00
2022-09-05T06:27:14.605Z,2408.00
2022-09-05T06:28:18.467Z,2452.00
2022-09-05T06:29:14.520Z,2480.00
2022-09-05T06:30:14.455Z,2560.00
2022-09-05T06:31:30.195Z,2620.00
2022-09-05T06:32:14.383Z,2700.00
2022-09-05T06:33:14.308Z,2740.00
2022-09-05T06:34:27.923Z,2772.00
2022-09-05T06:35:14.223Z,2832.00
2022-09-05T06:36:14.163Z,2888.00
2022-09-05T06:37:14.109Z,3248.00
2022-09-05T06:38:14.075Z,3572.00
2022-09-05T06:39:14.011Z,3644.00
2022-09-05T06:40:13.961Z,3152.00
2022-09-05T06:41:13.912Z,3132.00
2022-09-05T06:42:26.782Z,3160.00
2022-09-05T06:43:13.827Z,3148.00
2022-09-05T06:44:13.763Z,3176.00
2022-09-05T06:45:28.365Z,3196.00
2022-09-05T06:46:15.624Z,3220.00
2022-09-05T06:47:30.209Z,3200.00
2022-09-05T06:48:14.540Z,3208.00
2022-09-05T06:49:28.986Z,3232.00
2022-09-05T06:50:27.112Z,3324.00
2022-09-05T06:51:13.421Z,3408.00
2022-09-05T06:52:29.483Z,3496.00
2022-09-05T06:53:19.911Z,3568.00
2022-09-05T06:54:13.272Z,3640.00
2022-09-05T06:55:13.238Z,3640.00
2022-09-05T06:56:15.799Z,3584.00
2022-09-05T06:57:13.127Z,3492.00
2022-09-05T06:58:13.080Z,3440.00
2022-09-05T06:59:13.029Z,3400.00
2022-09-05T07:00:17.644Z,3364.00
2022-09-05T07:01:13.043Z,3336.00
2022-09-05T07:02:12.925Z,3300.00
2022-09-05T07:03:13.573Z,3300.00
2022-09-05T07:04:33.292Z,3348.00
2022-09-05T07:05:37.217Z,3432.00
2022-09-05T07:06:19.288Z,3540.00
2022-09-05T07:07:12.645Z,3580.00
2022-09-05T07:08:33.518Z,3616.00
2022-09-05T07:09:12.542Z,3680.00
2022-09-05T07:10:35.073Z,3680.00
2022-09-05T07:11:16.972Z,3696.00
2022-09-05T07:12:12.412Z,3692.00
2022-09-05T07:13:12.348Z,3616.00
2022-09-05T07:14:12.300Z,3628.00
2022-09-05T07:15:12.254Z,3604.00
2022-09-05T07:16:12.249Z,3636.00
2022-09-05T07:17:12.156Z,3672.00
2022-09-05T07:18:12.120Z,3820.00
2022-09-05T07:22:47.579Z,4288.00
2022-09-05T07:24:06.129Z,4336.00
2022-09-05T07:24:47.584Z,4300.00
2022-09-05T07:25:31.648Z,4240.00
2022-09-05T07:26:49.710Z,4284.00
2022-09-05T07:27:29.167Z,4340.00
2022-09-05T07:28:30.544Z,4392.00
2022-09-05T07:29:29.072Z,4504.00
2022-09-05T07:30:29.024Z,4624.00
2022-09-05T07:31:37.486Z,4728.00
2022-09-05T07:32:28.935Z,4808.00
2022-09-05T07:33:28.904Z,4836.00
2022-09-05T07:34:28.832Z,4832.00
2022-09-05T07:35:28.783Z,4860.00
2022-09-05T07:36:28.736Z,4948.00
2022-09-05T07:37:28.689Z,5084.00
2022-09-05T07:38:48.289Z,5148.00
2022-09-05T07:39:29.487Z,5184.00
2022-09-05T07:40:28.627Z,5156.00
2022-09-05T07:41:28.496Z,5296.00
2022-09-05T07:42:28.461Z,5372.00
2022-09-05T07:43:28.522Z,5384.00
2022-09-05T07:44:28.375Z,5308.00
2022-09-05T07:45:28.341Z,5280.00
2022-09-05T07:46:28.259Z,5500.00
2022-09-05T07:47:28.243Z,5564.00
2022-09-05T07:48:34.955Z,5544.00
2022-09-05T07:49:28.141Z,5596.00
2022-09-05T07:52:24.926Z,5576.00
2022-09-05T07:56:53.051Z,5752.00
2022-09-05T07:56:53.251Z,5932.00
2022-09-05T07:57:01.958Z,6260.00
2022-09-05T07:57:02.369Z,6024.00
2022-09-05T07:57:03.720Z,5744.00
2022-09-05T07:57:09.635Z,6424.00
2022-09-05T07:57:32.202Z,6416.00
2022-09-05T07:58:27.695Z,6352.00
2022-09-05T07:59:27.670Z,6104.00
2022-09-05T08:00:29.548Z,6264.00
2022-09-05T08:01:27.583Z,6096.00
2022-09-05T08:02:27.510Z,5976.00
2022-09-05T08:03:27.462Z,5944.00
2022-09-05T08:04:27.423Z,5932.00
2022-09-05T08:05:35.066Z,5728.00
2022-09-05T08:07:26.983Z,5880.00
2022-09-05T08:07:48.903Z,5940.00
2022-09-05T08:08:27.231Z,6372.00
2022-09-05T08:10:09.245Z,6560.00
2022-09-05T08:10:31.081Z,6876.00
2022-09-05T08:11:27.095Z,7048.00
2022-09-05T08:12:27.908Z,7068.00
2022-09-05T08:13:27.373Z,7168.00
2022-09-05T08:14:43.433Z,7328.00
2022-09-05T08:15:26.925Z,7348.00
2022-09-05T08:16:26.891Z,7420.00
2022-09-05T08:17:30.072Z,7524.00
2022-09-05T08:18:27.553Z,7816.00
2022-09-05T08:19:26.739Z,7844.00
2022-09-05T08:20:26.707Z,7828.00
2022-09-05T08:21:28.081Z,7760.00
2022-09-05T08:22:26.602Z,7324.00
2022-09-05T08:23:26.563Z,6992.00
2022-09-05T08:24:26.516Z,7268.00
2022-09-05T08:25:27.553Z,7584.00
2022-09-05T08:26:26.430Z,7644.00
2022-09-05T08:27:26.413Z,7668.00
2022-09-05T08:28:38.901Z,7612.00
2022-09-05T08:29:26.302Z,7424.00
2022-09-05T08:30:28.118Z,7404.00
2022-09-05T08:31:26.281Z,7280.00
2022-09-05T08:32:26.207Z,7112.00
2022-09-05T08:33:26.136Z,7036.00
2022-09-05T08:34:31.500Z,7044.00
2022-09-05T08:35:26.055Z,7032.00
2022-09-05T08:36:26.012Z,6920.00
2022-09-05T08:37:25.990Z,6740.00
2022-09-05T08:38:26.137Z,6744.00
2022-09-05T08:39:25.914Z,6696.00
2022-09-05T08:40:25.911Z,6688.00
2022-09-05T08:41:44.768Z,6716.00
2022-09-05T08:42:25.766Z,6676.00
2022-09-05T08:46:29.184Z,6572.00
2022-09-05T08:46:39.749Z,6524.00
2022-09-05T08:46:44.682Z,6456.00
2022-09-05T08:46:45.796Z,6436.00
2022-09-05T08:47:25.657Z,6416.00
2022-09-05T08:48:25.517Z,6404.00
2022-09-05T08:49:36.773Z,6236.00
2022-09-05T08:50:26.771Z,6188.00
2022-09-05T08:51:25.420Z,6092.00
2022-09-05T08:52:25.357Z,6000.00
2022-09-05T08:53:35.363Z,6092.00
2022-09-05T08:54:25.271Z,6032.00
2022-09-05T08:55:25.238Z,6100.00
2022-09-05T08:56:25.210Z,6104.00
2022-09-05T08:57:25.176Z,6028.00
2022-09-05T08:58:25.173Z,6032.00
2022-09-05T08:59:31.725Z,5996.00
2022-09-05T09:00:25.026Z,5964.00
2022-09-05T09:01:25.044Z,5912.00
2022-09-05T09:02:47.450Z,5880.00
2022-09-05T09:03:25.617Z,5824.00
2022-09-05T09:04:37.143Z,5768.00
2022-09-05T09:05:24.817Z,5568.00
2022-09-05T09:06:26.833Z,5616.00
2022-09-05T09:07:47.447Z,5612.00
2022-09-05T09:08:24.720Z,5548.00
2022-09-05T09:09:24.653Z,5516.00
2022-09-05T09:10:25.972Z,5516.00
2022-09-05T09:11:24.570Z,5480.00
2022-09-05T09:12:24.528Z,5428.00
2022-09-05T09:13:24.605Z,5336.00
2022-09-05T09:14:30.308Z,5300.00
2022-09-05T09:15:24.405Z,5276.00
2022-09-05T09:16:24.432Z,5232.00
2022-09-05T09:17:24.669Z,5180.00
2022-09-05T09:18:24.279Z,5164.00
2022-09-05T09:19:28.944Z,5148.00
2022-09-05T09:20:24.279Z,5072.00
2022-09-05T09:21:24.153Z,5016.00
2022-09-05T09:22:24.127Z,4992.00
2022-09-05T09:23:40.388Z,4924.00
2022-09-05T09:24:24.039Z,4872.00
2022-09-05T09:25:27.177Z,4840.00
2022-09-05T09:26:24.678Z,4816.00
2022-09-05T09:28:02.914Z,4816.00
2022-09-05T09:28:46.950Z,4844.00
2022-09-05T09:29:23.813Z,4856.00
2022-09-05T09:30:23.877Z,4900.00
2022-09-05T09:31:23.795Z,4940.00
2022-09-05T09:32:23.697Z,4948.00
2022-09-05T09:33:27.184Z,4928.00
2022-09-05T09:34:23.605Z,4932.00
2022-09-05T09:35:23.571Z,4988.00
2022-09-05T09:36:23.562Z,4956.00
2022-09-05T09:37:41.657Z,5000.00
2022-09-05T09:38:23.472Z,5136.00
2022-09-05T09:39:37.740Z,5132.00
2022-09-05T09:40:23.386Z,5164.00
2022-09-05T09:41:23.317Z,5180.00
2022-09-05T09:42:33.221Z,5268.00
2022-09-05T09:43:23.232Z,5408.00
2022-09-05T09:44:23.192Z,5448.00
2022-09-05T09:45:28.997Z,5352.00
2022-09-05T09:46:23.157Z,5340.00
2022-09-05T09:47:23.070Z,5304.00
2022-09-05T09:48:23.082Z,5360.00
2022-09-05T09:49:23.726Z,5328.00
2022-09-05T09:50:23.684Z,5224.00
2022-09-05T09:51:22.929Z,4488.00
2022-09-05T09:52:22.872Z,3256.00
2022-09-05T09:53:22.840Z,3148.00
2022-09-05T09:54:22.787Z,2976.00
2022-09-05T09:55:22.766Z,4412.00
2022-09-05T09:56:22.699Z,4948.00
2022-09-05T09:57:22.656Z,4912.00
2022-09-05T09:58:23.811Z,4984.00
2022-09-05T09:59:22.578Z,4992.00
2022-09-05T10:00:22.533Z,5008.00
2022-09-05T10:01:36.483Z,4832.00
2022-09-05T10:04:12.513Z,3380.00
2022-09-05T10:10:33.590Z,5280.00
2022-09-05T10:10:35.549Z,5240.00
2022-09-05T10:10:35.579Z,5264.00
2022-09-05T10:10:44.180Z,5432.00
2022-09-05T10:10:49.407Z,5352.00
2022-09-05T10:10:49.589Z,5344.00
2022-09-05T10:10:51.624Z,5164.00
2022-09-05T10:10:51.889Z,5240.00
2022-09-05T10:11:51.457Z,5136.00
2022-09-05T10:12:22.142Z,5120.00
2022-09-05T10:13:22.079Z,5072.00
2022-09-05T10:14:24.261Z,5048.00
2022-09-05T10:15:31.240Z,5116.00
2022-09-05T10:16:21.939Z,5156.00
2022-09-05T10:17:21.827Z,5168.00
2022-09-05T10:18:22.416Z,5244.00
2022-09-05T10:20:08.154Z,5300.00
2022-09-05T10:20:24.044Z,5376.00
2022-09-05T10:21:21.662Z,5444.00
2022-09-05T10:22:37.779Z,5468.00
2022-09-05T10:23:21.649Z,5424.00
2022-09-05T10:24:21.565Z,5444.00
2022-09-05T10:25:21.497Z,5336.00
2022-09-05T10:26:21.456Z,4236.00
2022-09-05T10:27:21.417Z,5304.00
2022-09-05T10:28:21.378Z,5232.00
2022-09-05T10:29:37.888Z,5428.00
2022-09-05T10:30:25.234Z,5472.00
2022-09-05T10:33:32.431Z,5440.00
2022-09-05T10:35:07.670Z,5528.00
2022-09-05T10:35:16.837Z,5520.00
2022-09-05T10:35:17.161Z,5572.00
2022-09-05T10:35:23.630Z,5548.00
2022-09-05T10:36:21.100Z,3844.00
2022-09-05T10:37:21.021Z,5292.00
2022-09-05T10:38:21.010Z,4852.00
2022-09-05T10:39:21.018Z,5436.00
2022-09-05T10:40:20.888Z,5436.00
2022-09-05T10:41:22.919Z,5476.00
2022-09-05T10:42:20.808Z,5496.00
2022-09-05T10:43:20.798Z,3220.00
2022-09-05T10:44:20.726Z,5524.00
2022-09-05T10:45:20.683Z,5680.00
2022-09-05T10:46:46.991Z,5736.00
2022-09-05T10:47:20.658Z,5760.00
2022-09-05T10:48:20.566Z,5824.00
2022-09-05T10:49:20.523Z,5752.00
2022-09-05T10:50:20.482Z,5668.00
2022-09-05T10:51:27.804Z,5520.00
2022-09-05T10:52:20.401Z,3516.00
2022-09-05T10:53:20.415Z,3092.00
2022-09-05T10:54:20.320Z,3240.00
2022-09-05T10:55:20.280Z,4964.00
2022-09-05T10:56:20.264Z,4348.00
2022-09-05T10:57:20.205Z,5416.00
2022-09-05T10:58:30.381Z,5368.00
2022-09-05T11:01:33.404Z,5300.00
2022-09-05T11:02:20.159Z,5308.00
2022-09-05T11:02:21.751Z,3220.00
2022-09-05T11:02:34.071Z,4928.00
2022-09-05T11:03:25.028Z,3580.00
2022-09-05T11:04:19.997Z,5204.00
2022-09-05T11:05:20.015Z,5068.00
2022-09-05T11:06:24.849Z,4880.00
2022-09-05T11:07:24.813Z,5220.00
2022-09-05T11:08:19.757Z,5340.00
2022-09-05T11:09:19.742Z,5324.00
2022-09-05T11:10:19.675Z,5348.00
2022-09-05T11:11:28.374Z,5360.00
2022-09-05T11:12:19.596Z,5364.00
2022-09-05T11:13:19.558Z,5352.00
2022-09-05T11:14:26.838Z,5372.00
2022-09-05T11:15:19.477Z,5428.00
2022-09-05T11:16:19.490Z,5408.00
2022-09-05T11:17:19.409Z,5204.00
2022-09-05T11:18:19.357Z,3048.00
2022-09-05T11:19:19.331Z,3620.00
2022-09-05T11:20:23.814Z,5004.00
2022-09-05T11:21:19.264Z,4396.00
2022-09-05T11:22:23.664Z,3028.00
2022-09-05T11:23:19.182Z,2996.00
2022-09-05T11:24:19.116Z,2996.00
2022-09-05T11:25:19.079Z,3012.00
2022-09-05T11:26:19.038Z,2992.00
2022-09-05T11:27:24.573Z,2940.00
2022-09-05T11:28:18.981Z,2976.00
2022-09-05T11:29:18.938Z,2936.00
2022-09-05T11:30:28.608Z,3004.00
2022-09-05T11:31:18.876Z,3072.00
2022-09-05T11:36:11.798Z,3820.00
2022-09-05T11:39:23.984Z,5048.00
2022-09-05T11:39:47.564Z,5188.00
2022-09-05T11:39:50.924Z,5184.00
2022-09-05T11:39:54.370Z,5300.00
2022-09-05T11:39:54.634Z,5188.00
2022-09-05T11:40:07.146Z,5144.00
2022-09-05T11:40:10.360Z,5084.00
2022-09-05T11:40:26.581Z,5116.00
2022-09-05T11:41:19.190Z,4196.00
2022-09-05T11:42:18.386Z,5072.00
2022-09-05T11:43:18.359Z,3808.00
2022-09-05T11:44:25.802Z,4920.00
2022-09-05T11:45:18.265Z,5280.00
2022-09-05T11:46:18.340Z,5328.00
2022-09-05T11:47:27.916Z,5360.00
2022-09-05T11:48:18.142Z,5460.00
2022-09-05T11:49:18.112Z,5384.00
2022-09-05T11:50:18.058Z,5380.00
2022-09-05T11:51:18.014Z,5376.00
2022-09-05T11:52:17.974Z,5312.00
2022-09-05T11:53:17.932Z,5196.00
2022-09-05T11:54:17.895Z,5196.00
2022-09-05T11:55:20.994Z,5200.00
2022-09-05T11:56:17.806Z,5256.00
2022-09-05T11:57:33.571Z,5268.00
2022-09-05T11:58:44.725Z,5232.00
2022-09-05T11:59:32.965Z,5200.00
2022-09-05T12:00:31.328Z,5204.00
2022-09-05T12:01:41.876Z,5192.00
2022-09-05T12:02:23.898Z,5168.00
2022-09-05T12:03:57.974Z,5168.00
2022-09-05T12:04:17.517Z,5100.00
2022-09-05T12:05:48.478Z,5144.00
2022-09-05T12:06:17.449Z,5084.00
2022-09-05T12:07:31.781Z,4976.00
2022-09-05T12:08:17.329Z,4796.00
2022-09-05T12:09:20.447Z,4808.00
2022-09-05T12:10:43.544Z,4884.00
2022-09-05T12:11:17.189Z,4920.00
2022-09-05T12:12:29.984Z,4940.00
2022-09-05T12:13:17.135Z,4924.00
2022-09-05T12:14:21.608Z,4984.00
2022-09-05T12:15:17.026Z,5032.00
2022-09-05T12:16:17.026Z,2776.00
2022-09-05T12:17:17.187Z,2728.00
2022-09-05T12:18:19.617Z,2772.00
2022-09-05T12:19:18.958Z,2728.00
2022-09-05T12:20:22.174Z,2644.00
2022-09-05T12:21:19.568Z,2624.00
2022-09-05T12:22:23.555Z,2580.00
2022-09-05T12:23:31.211Z,2532.00
2022-09-05T12:25:25.218Z,2508.00
2022-09-05T12:25:26.493Z,2528.00
2022-09-05T12:26:16.580Z,2536.00
2022-09-05T12:27:44.850Z,2504.00
2022-09-05T12:29:27.146Z,2520.00
2022-09-05T12:29:29.283Z,2556.00
2022-09-05T12:30:16.410Z,2732.00
2022-09-05T12:32:47.517Z,2676.00
2022-09-05T12:33:45.444Z,3652.00
2022-09-05T12:36:05.859Z,4652.00
2022-09-05T12:36:08.151Z,4624.00
2022-09-05T12:36:08.653Z,4648.00